sensor_id;sensor_type;location;lat;lon;timestamp;temperature;humidity
14901;DHT22;7542;49.078;9.194;2023-03-26T00:00:04;23.70;52.40
14901;DHT22;7542;49.078;9.194;2023-03-26T00:01:14;23.70;52.40
14901;DHT22;7542;49.078;9.194;2023-03-26T00:02:17;23.70;52.40
14901;DHT22;7542;49.078;9.194;2023-03-26T00:03:20;23.70;52.40
14901;DHT22;7542;49.078;9.194;2023-03-26T00:04:23;23.80;52.30
14901;DHT22;7542;49.078;9.194;2023-03-26T00:05:25;23.70;52.40
14901;DHT22;7542;49.078;9.194;2023-03-26T00:06:30;23.70;52.40
14901;DHT22;7542;49.078;9.194;2023-03-26T00:07:39;23.70;52.40
14901;DHT22;7542;49.078;9.194;2023-03-26T00:08:43;23.70;52.40
14901;DHT22;7542;49.078;9.194;2023-03-26T00:09:46;23.70;52.40
14901;DHT22;7542;49.078;9.194;2023-03-26T00:10:48;23.70;52.40
14901;DHT22;7542;49.078;9.194;2023-03-26T00:11:49;26.00;53.30
14901;DHT22;7542;49.078;9.194;2023-03-26T00:12:51;23.70;52.40
14901;DHT22;7542;49.078;9.194;2023-03-26T00:13:54;23.70;52.30
14901;DHT22;7542;49.078;9.194;2023-03-26T00:15:00;23.70;52.20
14901;DHT22;7542;49.078;9.194;2023-03-26T00:16:02;23.70;52.30
14901;DHT22;7542;49.078;9.194;2023-03-26T00:17:05;23.70;52.20
14901;DHT22;7542;49.078;9.194;2023-03-26T00:18:08;23.70;52.20
14901;DHT22;7542;49.078;9.194;2023-03-26T00:19:11;23.70;52.30
14901;DHT22;7542;49.078;9.194;2023-03-26T00:20:13;23.70;52.30
14901;DHT22;7542;49.078;9.194;2023-03-26T00:21:17;23.60;52.10
14901;DHT22;7542;49.078;9.194;2023-03-26T00:22:21;23.70;52.20
14901;DHT22;7542;49.078;9.194;2023-03-26T00:23:25;23.60;52.20
14901;DHT22;7542;49.078;9.194;2023-03-26T00:24:27;23.60;52.20
14901;DHT22;7542;49.078;9.194;2023-03-26T00:25:30;23.70;52.30
14901;DHT22;7542;49.078;9.194;2023-03-26T00:26:33;23.70;52.30
14901;DHT22;7542;49.078;9.194;2023-03-26T00:27:38;23.70;52.20
14901;DHT22;7542;49.078;9.194;2023-03-26T00:28:41;23.70;52.30
14901;DHT22;7542;49.078;9.194;2023-03-26T00:29:43;23.60;52.20
14901;DHT22;7542;49.078;9.194;2023-03-26T00:30:45;23.70;52.30
14901;DHT22;7542;49.078;9.194;2023-03-26T00:31:47;23.70;52.30
14901;DHT22;7542;49.078;9.194;2023-03-26T00:32:49;23.60;52.20
14901;DHT22;7542;49.078;9.194;2023-03-26T00:33:54;23.60;52.20
14901;DHT22;7542;49.078;9.194;2023-03-26T00:34:57;23.60;52.20
14901;DHT22;7542;49.078;9.194;2023-03-26T00:35:59;23.60;52.20
14901;DHT22;7542;49.078;9.194;2023-03-26T00:37:04;23.60;52.20
14901;DHT22;7542;49.078;9.194;2023-03-26T00:38:06;23.60;52.20
14901;DHT22;7542;49.078;9.194;2023-03-26T00:39:09;23.60;52.20
14901;DHT22;7542;49.078;9.194;2023-03-26T00:40:11;23.60;52.20
14901;DHT22;7542;49.078;9.194;2023-03-26T00:41:16;23.60;52.20
14901;DHT22;7542;49.078;9.194;2023-03-26T00:42:23;23.60;52.20
14901;DHT22;7542;49.078;9.194;2023-03-26T00:43:25;23.60;52.20
14901;DHT22;7542;49.078;9.194;2023-03-26T00:44:27;23.60;52.20
14901;DHT22;7542;49.078;9.194;2023-03-26T00:45:29;23.60;52.20
14901;DHT22;7542;49.078;9.194;2023-03-26T00:46:31;23.60;52.20
14901;DHT22;7542;49.078;9.194;2023-03-26T00:47:33;23.60;52.20
14901;DHT22;7542;49.078;9.194;2023-03-26T00:48:36;23.60;52.20
14901;DHT22;7542;49.078;9.194;2023-03-26T00:49:46;23.70;52.30
14901;DHT22;7542;49.078;9.194;2023-03-26T00:50:49;23.60;52.20
14901;DHT22;7542;49.078;9.194;2023-03-26T00:51:51;23.60;52.20
14901;DHT22;7542;49.078;9.194;2023-03-26T00:52:53;23.60;52.20
14901;DHT22;7542;49.078;9.194;2023-03-26T00:53:57;23.60;52.20
14901;DHT22;7542;49.078;9.194;2023-03-26T00:54:58;23.60;52.20
14901;DHT22;7542;49.078;9.194;2023-03-26T00:56:00;23.60;52.20
14901;DHT22;7542;49.078;9.194;2023-03-26T00:57:02;23.60;52.20
14901;DHT22;7542;49.078;9.194;2023-03-26T00:58:08;23.60;52.20
14901;DHT22;7542;49.078;9.194;2023-03-26T00:59:12;23.70;52.30
14901;DHT22;7542;49.078;9.194;2023-03-26T01:00:15;23.60;52.20
14901;DHT22;7542;49.078;9.194;2023-03-26T01:01:24;23.70;52.30
14901;DHT22;7542;49.078;9.194;2023-03-26T01:02:29;23.60;52.20
14901;DHT22;7542;49.078;9.194;2023-03-26T01:03:35;23.60;52.20
14901;DHT22;7542;49.078;9.194;2023-03-26T01:04:41;20.40;50.70
14901;DHT22;7542;49.078;9.194;2023-03-26T01:06:12;25.00;52.80
14901;DHT22;7542;49.078;9.194;2023-03-26T01:07:23;23.60;52.20
14901;DHT22;7542;49.078;9.194;2023-03-26T01:08:31;23.60;52.20
14901;DHT22;7542;49.078;9.194;2023-03-26T01:09:42;23.60;52.20
14901;DHT22;7542;49.078;9.194;2023-03-26T01:10:52;23.60;52.20
14901;DHT22;7542;49.078;9.194;2023-03-26T01:12:05;23.60;52.20
14901;DHT22;7542;49.078;9.194;2023-03-26T01:13:09;23.50;52.20
14901;DHT22;7542;49.078;9.194;2023-03-26T01:14:15;23.60;52.20
14901;DHT22;7542;49.078;9.194;2023-03-26T01:15:19;23.50;52.20
14901;DHT22;7542;49.078;9.194;2023-03-26T01:16:35;23.50;52.10
14901;DHT22;7542;49.078;9.194;2023-03-26T01:17:42;23.50;52.20
14901;DHT22;7542;49.078;9.194;2023-03-26T01:18:44;23.60;52.10
14901;DHT22;7542;49.078;9.194;2023-03-26T01:19:56;23.50;52.10
14901;DHT22;7542;49.078;9.194;2023-03-26T01:21:19;23.50;52.10
14901;DHT22;7542;49.078;9.194;2023-03-26T01:22:25;23.60;52.10
14901;DHT22;7542;49.078;9.194;2023-03-26T01:23:36;23.50;52.10
14901;DHT22;7542;49.078;9.194;2023-03-26T01:24:42;23.50;52.10
14901;DHT22;7542;49.078;9.194;2023-03-26T01:25:53;23.50;52.10
14901;DHT22;7542;49.078;9.194;2023-03-26T01:27:13;23.40;52.00
14901;DHT22;7542;49.078;9.194;2023-03-26T01:28:23;23.50;52.10
14901;DHT22;7542;49.078;9.194;2023-03-26T01:31:19;27.50;53.60
14901;DHT22;7542;49.078;9.194;2023-03-26T01:32:53;23.50;52.10
14901;DHT22;7542;49.078;9.194;2023-03-26T01:40:04;23.40;52.00
14901;DHT22;7542;49.078;9.194;2023-03-26T01:44:40;23.50;52.10
14901;DHT22;7542;49.078;9.194;2023-03-26T01:45:49;23.40;52.00
14901;DHT22;7542;49.078;9.194;2023-03-26T01:46:53;23.40;52.00
14901;DHT22;7542;49.078;9.194;2023-03-26T01:47:56;23.40;52.10
14901;DHT22;7542;49.078;9.194;2023-03-26T01:48:58;23.40;52.10
14901;DHT22;7542;49.078;9.194;2023-03-26T01:50:00;23.40;52.10
14901;DHT22;7542;49.078;9.194;2023-03-26T01:51:04;23.40;52.10
14901;DHT22;7542;49.078;9.194;2023-03-26T01:52:15;23.40;52.10
14901;DHT22;7542;49.078;9.194;2023-03-26T01:53:20;23.40;52.10
14901;DHT22;7542;49.078;9.194;2023-03-26T01:54:25;23.40;52.00
14901;DHT22;7542;49.078;9.194;2023-03-26T01:55:51;23.50;52.10
14901;DHT22;7542;49.078;9.194;2023-03-26T01:58:40;23.40;52.00
14901;DHT22;7542;49.078;9.194;2023-03-26T02:06:42;23.40;52.00
14901;DHT22;7542;49.078;9.194;2023-03-26T02:09:14;23.40;52.10
14901;DHT22;7542;49.078;9.194;2023-03-26T02:10:23;23.40;52.20
14901;DHT22;7542;49.078;9.194;2023-03-26T02:11:29;23.30;52.10
14901;DHT22;7542;49.078;9.194;2023-03-26T02:12:36;23.40;52.20
14901;DHT22;7542;49.078;9.194;2023-03-26T02:13:41;23.40;52.10
14901;DHT22;7542;49.078;9.194;2023-03-26T02:14:45;23.40;52.10
14901;DHT22;7542;49.078;9.194;2023-03-26T02:16:00;23.40;52.10
14901;DHT22;7542;49.078;9.194;2023-03-26T02:17:03;23.40;52.10
14901;DHT22;7542;49.078;9.194;2023-03-26T02:18:07;23.50;52.20
14901;DHT22;7542;49.078;9.194;2023-03-26T02:19:12;23.50;52.30
14901;DHT22;7542;49.078;9.194;2023-03-26T02:20:22;23.70;52.30
14901;DHT22;7542;49.078;9.194;2023-03-26T02:21:25;23.50;52.20
14901;DHT22;7542;49.078;9.194;2023-03-26T02:22:28;23.50;52.20
14901;DHT22;7542;49.078;9.194;2023-03-26T02:23:32;23.50;52.20
14901;DHT22;7542;49.078;9.194;2023-03-26T02:24:37;25.50;52.80
14901;DHT22;7542;49.078;9.194;2023-03-26T02:25:39;23.50;52.10
14901;DHT22;7542;49.078;9.194;2023-03-26T02:26:43;23.50;52.10
14901;DHT22;7542;49.078;9.194;2023-03-26T02:27:47;23.50;52.00
14901;DHT22;7542;49.078;9.194;2023-03-26T02:28:50;23.50;52.00
14901;DHT22;7542;49.078;9.194;2023-03-26T02:29:52;23.50;52.00
14901;DHT22;7542;49.078;9.194;2023-03-26T02:30:53;23.50;52.00
14901;DHT22;7542;49.078;9.194;2023-03-26T02:31:58;23.50;52.00
14901;DHT22;7542;49.078;9.194;2023-03-26T02:33:00;23.50;52.00
14901;DHT22;7542;49.078;9.194;2023-03-26T02:34:02;23.50;52.00
14901;DHT22;7542;49.078;9.194;2023-03-26T02:35:04;23.60;51.90
14901;DHT22;7542;49.078;9.194;2023-03-26T02:36:07;23.60;52.00
14901;DHT22;7542;49.078;9.194;2023-03-26T02:37:11;23.50;51.90
14901;DHT22;7542;49.078;9.194;2023-03-26T02:38:13;23.50;51.90
14901;DHT22;7542;49.078;9.194;2023-03-26T02:39:15;23.50;51.90
14901;DHT22;7542;49.078;9.194;2023-03-26T02:40:18;23.30;51.80
14901;DHT22;7542;49.078;9.194;2023-03-26T02:41:21;23.60;51.90
14901;DHT22;7542;49.078;9.194;2023-03-26T02:42:23;23.60;51.80
14901;DHT22;7542;49.078;9.194;2023-03-26T02:43:26;23.50;51.90
14901;DHT22;7542;49.078;9.194;2023-03-26T02:44:28;23.60;51.80
14901;DHT22;7542;49.078;9.194;2023-03-26T02:45:30;23.60;51.80
14901;DHT22;7542;49.078;9.194;2023-03-26T02:46:32;23.50;51.80
14901;DHT22;7542;49.078;9.194;2023-03-26T02:47:34;23.60;51.80
14901;DHT22;7542;49.078;9.194;2023-03-26T02:48:36;23.40;51.70
14901;DHT22;7542;49.078;9.194;2023-03-26T02:49:38;23.50;51.80
14901;DHT22;7542;49.078;9.194;2023-03-26T02:50:40;23.50;51.70
14901;DHT22;7542;49.078;9.194;2023-03-26T02:51:42;23.50;51.70
14901;DHT22;7542;49.078;9.194;2023-03-26T02:52:44;23.50;51.70
14901;DHT22;7542;49.078;9.194;2023-03-26T02:53:49;23.50;51.70
14901;DHT22;7542;49.078;9.194;2023-03-26T02:54:54;23.50;51.70
14901;DHT22;7542;49.078;9.194;2023-03-26T02:55:57;23.50;51.70
14901;DHT22;7542;49.078;9.194;2023-03-26T02:57:00;23.50;51.70
14901;DHT22;7542;49.078;9.194;2023-03-26T02:58:02;23.50;51.70
14901;DHT22;7542;49.078;9.194;2023-03-26T02:59:04;23.50;51.70
14901;DHT22;7542;49.078;9.194;2023-03-26T03:00:07;23.50;51.70
14901;DHT22;7542;49.078;9.194;2023-03-26T03:01:09;23.50;51.70
14901;DHT22;7542;49.078;9.194;2023-03-26T03:02:11;23.50;51.60
14901;DHT22;7542;49.078;9.194;2023-03-26T03:03:14;23.50;51.70
14901;DHT22;7542;49.078;9.194;2023-03-26T03:04:18;23.50;51.60
14901;DHT22;7542;49.078;9.194;2023-03-26T03:05:20;23.50;51.60
14901;DHT22;7542;49.078;9.194;2023-03-26T03:06:26;23.50;51.70
14901;DHT22;7542;49.078;9.194;2023-03-26T03:07:31;23.50;51.60
14901;DHT22;7542;49.078;9.194;2023-03-26T03:08:33;23.50;51.60
14901;DHT22;7542;49.078;9.194;2023-03-26T03:09:35;23.50;51.60
14901;DHT22;7542;49.078;9.194;2023-03-26T03:10:37;23.50;51.60
14901;DHT22;7542;49.078;9.194;2023-03-26T03:11:40;23.50;51.60
14901;DHT22;7542;49.078;9.194;2023-03-26T03:12:42;23.40;51.50
14901;DHT22;7542;49.078;9.194;2023-03-26T03:13:44;23.50;51.60
14901;DHT22;7542;49.078;9.194;2023-03-26T03:14:46;23.30;51.50
14901;DHT22;7542;49.078;9.194;2023-03-26T03:15:48;23.50;51.60
14901;DHT22;7542;49.078;9.194;2023-03-26T03:16:50;23.50;51.60
14901;DHT22;7542;49.078;9.194;2023-03-26T03:17:52;23.50;51.60
14901;DHT22;7542;49.078;9.194;2023-03-26T03:18:54;23.50;51.60
14901;DHT22;7542;49.078;9.194;2023-03-26T03:19:59;23.50;51.60
14901;DHT22;7542;49.078;9.194;2023-03-26T03:21:01;23.50;51.60
14901;DHT22;7542;49.078;9.194;2023-03-26T03:22:04;23.50;51.60
14901;DHT22;7542;49.078;9.194;2023-03-26T03:23:06;23.50;51.50
14901;DHT22;7542;49.078;9.194;2023-03-26T03:24:09;23.50;51.60
14901;DHT22;7542;49.078;9.194;2023-03-26T03:25:12;23.50;51.60
14901;DHT22;7542;49.078;9.194;2023-03-26T03:26:17;23.40;51.50
14901;DHT22;7542;49.078;9.194;2023-03-26T03:27:28;23.50;51.60
14901;DHT22;7542;49.078;9.194;2023-03-26T03:28:30;23.50;51.60
14901;DHT22;7542;49.078;9.194;2023-03-26T03:29:32;23.50;51.60
14901;DHT22;7542;49.078;9.194;2023-03-26T03:30:34;23.50;51.60
14901;DHT22;7542;49.078;9.194;2023-03-26T03:31:36;23.50;51.60
14901;DHT22;7542;49.078;9.194;2023-03-26T03:32:38;23.40;51.50
14901;DHT22;7542;49.078;9.194;2023-03-26T03:33:40;23.50;51.50
14901;DHT22;7542;49.078;9.194;2023-03-26T03:34:43;23.50;51.50
14901;DHT22;7542;49.078;9.194;2023-03-26T03:35:46;23.50;51.50
14901;DHT22;7542;49.078;9.194;2023-03-26T03:36:50;23.50;51.50
14901;DHT22;7542;49.078;9.194;2023-03-26T03:37:52;23.50;51.50
14901;DHT22;7542;49.078;9.194;2023-03-26T03:38:54;23.50;51.50
14901;DHT22;7542;49.078;9.194;2023-03-26T03:40:03;23.50;51.50
14901;DHT22;7542;49.078;9.194;2023-03-26T03:41:09;23.40;51.40
14901;DHT22;7542;49.078;9.194;2023-03-26T03:42:11;23.40;51.40
14901;DHT22;7542;49.078;9.194;2023-03-26T03:43:13;23.40;51.40
14901;DHT22;7542;49.078;9.194;2023-03-26T03:44:15;23.40;51.40
14901;DHT22;7542;49.078;9.194;2023-03-26T03:45:17;23.40;51.40
14901;DHT22;7542;49.078;9.194;2023-03-26T03:46:19;23.50;51.50
14901;DHT22;7542;49.078;9.194;2023-03-26T03:47:21;23.40;51.40
14901;DHT22;7542;49.078;9.194;2023-03-26T03:48:23;23.40;51.30
14901;DHT22;7542;49.078;9.194;2023-03-26T03:49:26;23.40;51.30
14901;DHT22;7542;49.078;9.194;2023-03-26T03:50:28;23.40;51.30
14901;DHT22;7542;49.078;9.194;2023-03-26T03:51:29;23.40;51.30
14901;DHT22;7542;49.078;9.194;2023-03-26T03:52:32;23.40;51.30
14901;DHT22;7542;49.078;9.194;2023-03-26T03:53:34;23.40;51.30
14901;DHT22;7542;49.078;9.194;2023-03-26T03:54:37;23.50;51.40
14901;DHT22;7542;49.078;9.194;2023-03-26T03:55:39;23.40;51.30
14901;DHT22;7542;49.078;9.194;2023-03-26T03:56:42;23.40;51.30
14901;DHT22;7542;49.078;9.194;2023-03-26T03:57:46;23.40;51.30
14901;DHT22;7542;49.078;9.194;2023-03-26T03:58:47;23.40;51.30
14901;DHT22;7542;49.078;9.194;2023-03-26T03:59:50;23.40;51.30
14901;DHT22;7542;49.078;9.194;2023-03-26T04:00:52;23.30;51.30
14901;DHT22;7542;49.078;9.194;2023-03-26T04:02:01;23.40;51.30
14901;DHT22;7542;49.078;9.194;2023-03-26T04:03:03;23.40;51.30
14901;DHT22;7542;49.078;9.194;2023-03-26T04:04:07;23.30;51.30
14901;DHT22;7542;49.078;9.194;2023-03-26T04:05:09;23.40;51.30
14901;DHT22;7542;49.078;9.194;2023-03-26T04:06:12;23.40;51.30
14901;DHT22;7542;49.078;9.194;2023-03-26T04:07:14;23.30;51.30
14901;DHT22;7542;49.078;9.194;2023-03-26T04:08:17;23.30;51.30
14901;DHT22;7542;49.078;9.194;2023-03-26T04:09:19;23.30;51.30
14901;DHT22;7542;49.078;9.194;2023-03-26T04:10:21;23.30;51.30
14901;DHT22;7542;49.078;9.194;2023-03-26T04:11:23;23.30;51.40
14901;DHT22;7542;49.078;9.194;2023-03-26T04:12:29;23.40;51.30
14901;DHT22;7542;49.078;9.194;2023-03-26T04:13:31;23.30;51.40
14901;DHT22;7542;49.078;9.194;2023-03-26T04:14:33;23.30;51.40
14901;DHT22;7542;49.078;9.194;2023-03-26T04:15:36;23.30;51.30
14901;DHT22;7542;49.078;9.194;2023-03-26T04:16:38;23.30;51.40
14901;DHT22;7542;49.078;9.194;2023-03-26T04:17:40;23.30;51.40
14901;DHT22;7542;49.078;9.194;2023-03-26T04:18:43;23.30;51.40
14901;DHT22;7542;49.078;9.194;2023-03-26T04:19:48;23.30;51.40
14901;DHT22;7542;49.078;9.194;2023-03-26T04:20:50;23.30;51.40
14901;DHT22;7542;49.078;9.194;2023-03-26T04:21:52;23.30;51.40
14901;DHT22;7542;49.078;9.194;2023-03-26T04:22:55;23.30;51.40
14901;DHT22;7542;49.078;9.194;2023-03-26T04:23:56;23.30;51.50
14901;DHT22;7542;49.078;9.194;2023-03-26T04:24:58;23.30;51.50
14901;DHT22;7542;49.078;9.194;2023-03-26T04:26:05;23.30;51.50
14901;DHT22;7542;49.078;9.194;2023-03-26T04:27:12;23.30;51.50
14901;DHT22;7542;49.078;9.194;2023-03-26T04:29:27;23.30;51.60
14901;DHT22;7542;49.078;9.194;2023-03-26T04:30:34;23.30;51.70
14901;DHT22;7542;49.078;9.194;2023-03-26T04:31:36;23.00;51.50
14901;DHT22;7542;49.078;9.194;2023-03-26T04:32:38;23.30;51.70
14901;DHT22;7542;49.078;9.194;2023-03-26T04:33:43;23.30;51.60
14901;DHT22;7542;49.078;9.194;2023-03-26T04:34:49;23.30;51.70
14901;DHT22;7542;49.078;9.194;2023-03-26T04:35:51;23.30;51.70
14901;DHT22;7542;49.078;9.194;2023-03-26T04:36:53;23.30;51.70
14901;DHT22;7542;49.078;9.194;2023-03-26T04:37:55;23.30;51.60
14901;DHT22;7542;49.078;9.194;2023-03-26T04:38:59;23.30;51.70
14901;DHT22;7542;49.078;9.194;2023-03-26T04:40:08;23.30;51.70
14901;DHT22;7542;49.078;9.194;2023-03-26T04:41:18;23.40;51.70
14901;DHT22;7542;49.078;9.194;2023-03-26T04:42:20;23.30;51.70
14901;DHT22;7542;49.078;9.194;2023-03-26T04:43:22;23.30;51.70
14901;DHT22;7542;49.078;9.194;2023-03-26T04:44:24;23.40;51.60
14901;DHT22;7542;49.078;9.194;2023-03-26T04:45:26;23.40;51.80
14901;DHT22;7542;49.078;9.194;2023-03-26T04:46:30;23.40;51.70
14901;DHT22;7542;49.078;9.194;2023-03-26T04:47:34;23.40;51.80
14901;DHT22;7542;49.078;9.194;2023-03-26T04:48:37;23.40;51.70
14901;DHT22;7542;49.078;9.194;2023-03-26T04:49:39;20.80;50.60
14901;DHT22;7542;49.078;9.194;2023-03-26T04:50:43;23.40;51.70
14901;DHT22;7542;49.078;9.194;2023-03-26T04:51:46;23.40;51.80
14901;DHT22;7542;49.078;9.194;2023-03-26T04:52:48;23.40;51.70
14901;DHT22;7542;49.078;9.194;2023-03-26T04:53:56;23.40;51.70
14901;DHT22;7542;49.078;9.194;2023-03-26T04:55:00;23.40;51.70
14901;DHT22;7542;49.078;9.194;2023-03-26T04:58:31;23.40;51.60
14901;DHT22;7542;49.078;9.194;2023-03-26T04:59:34;23.50;51.50
14901;DHT22;7542;49.078;9.194;2023-03-26T05:00:36;23.40;51.30
14901;DHT22;7542;49.078;9.194;2023-03-26T05:01:39;23.40;51.50
14901;DHT22;7542;49.078;9.194;2023-03-26T05:02:42;23.50;51.60
14901;DHT22;7542;49.078;9.194;2023-03-26T05:03:44;23.40;51.50
14901;DHT22;7542;49.078;9.194;2023-03-26T05:04:46;23.50;51.70
14901;DHT22;7542;49.078;9.194;2023-03-26T05:05:50;23.50;51.60
14901;DHT22;7542;49.078;9.194;2023-03-26T05:06:52;23.50;51.70
14901;DHT22;7542;49.078;9.194;2023-03-26T05:07:55;23.50;51.70
14901;DHT22;7542;49.078;9.194;2023-03-26T05:08:57;23.50;51.60
14901;DHT22;7542;49.078;9.194;2023-03-26T05:09:59;23.50;51.60
14901;DHT22;7542;49.078;9.194;2023-03-26T05:11:04;23.50;51.80
14901;DHT22;7542;49.078;9.194;2023-03-26T05:12:11;23.50;51.50
14901;DHT22;7542;49.078;9.194;2023-03-26T05:13:13;23.50;51.60
14901;DHT22;7542;49.078;9.194;2023-03-26T05:14:16;23.50;51.40
14901;DHT22;7542;49.078;9.194;2023-03-26T05:15:18;23.50;51.50
14901;DHT22;7542;49.078;9.194;2023-03-26T05:16:20;23.50;51.30
14901;DHT22;7542;49.078;9.194;2023-03-26T05:17:23;23.50;51.00
14901;DHT22;7542;49.078;9.194;2023-03-26T05:18:26;23.50;51.20
14901;DHT22;7542;49.078;9.194;2023-03-26T05:19:28;23.50;51.00
14901;DHT22;7542;49.078;9.194;2023-03-26T05:20:30;23.50;51.00
14901;DHT22;7542;49.078;9.194;2023-03-26T05:21:32;23.50;51.20
14901;DHT22;7542;49.078;9.194;2023-03-26T05:22:34;23.40;51.00
14901;DHT22;7542;49.078;9.194;2023-03-26T05:23:38;23.40;51.30
14901;DHT22;7542;49.078;9.194;2023-03-26T05:24:41;23.50;51.20
14901;DHT22;7542;49.078;9.194;2023-03-26T05:25:42;23.50;51.40
14901;DHT22;7542;49.078;9.194;2023-03-26T05:26:44;23.50;51.40
14901;DHT22;7542;49.078;9.194;2023-03-26T05:27:46;23.50;51.50
14901;DHT22;7542;49.078;9.194;2023-03-26T05:28:49;23.50;51.10
14901;DHT22;7542;49.078;9.194;2023-03-26T05:29:59;23.50;51.20
14901;DHT22;7542;49.078;9.194;2023-03-26T05:31:02;23.50;51.10
14901;DHT22;7542;49.078;9.194;2023-03-26T05:32:05;23.50;51.20
14901;DHT22;7542;49.078;9.194;2023-03-26T05:33:07;23.40;50.90
14901;DHT22;7542;49.078;9.194;2023-03-26T05:34:09;23.40;50.90
14901;DHT22;7542;49.078;9.194;2023-03-26T05:35:11;23.50;51.10
14901;DHT22;7542;49.078;9.194;2023-03-26T05:36:14;23.50;51.00
14901;DHT22;7542;49.078;9.194;2023-03-26T05:37:17;23.50;51.00
14901;DHT22;7542;49.078;9.194;2023-03-26T05:38:20;23.50;51.00
14901;DHT22;7542;49.078;9.194;2023-03-26T05:39:22;23.50;51.00
14901;DHT22;7542;49.078;9.194;2023-03-26T05:40:27;23.50;51.00
14901;DHT22;7542;49.078;9.194;2023-03-26T05:41:29;23.50;50.90
14901;DHT22;7542;49.078;9.194;2023-03-26T05:42:30;23.50;51.00
14901;DHT22;7542;49.078;9.194;2023-03-26T05:43:33;23.50;51.00
14901;DHT22;7542;49.078;9.194;2023-03-26T05:44:35;23.60;50.90
14901;DHT22;7542;49.078;9.194;2023-03-26T05:45:37;23.50;50.80
14901;DHT22;7542;49.078;9.194;2023-03-26T05:46:39;23.50;50.90
14901;DHT22;7542;49.078;9.194;2023-03-26T05:47:41;23.50;50.90
14901;DHT22;7542;49.078;9.194;2023-03-26T05:48:43;23.50;50.90
14901;DHT22;7542;49.078;9.194;2023-03-26T05:49:46;23.50;51.00
14901;DHT22;7542;49.078;9.194;2023-03-26T05:50:49;23.50;51.10
14901;DHT22;7542;49.078;9.194;2023-03-26T05:51:52;23.50;51.10
14901;DHT22;7542;49.078;9.194;2023-03-26T05:52:56;23.50;51.20
14901;DHT22;7542;49.078;9.194;2023-03-26T05:53:57;23.50;51.30
14901;DHT22;7542;49.078;9.194;2023-03-26T05:54:59;23.50;51.20
14901;DHT22;7542;49.078;9.194;2023-03-26T05:56:01;23.50;51.10
14901;DHT22;7542;49.078;9.194;2023-03-26T05:57:04;23.50;51.20
14901;DHT22;7542;49.078;9.194;2023-03-26T05:58:06;23.50;51.10
14901;DHT22;7542;49.078;9.194;2023-03-26T05:59:08;23.50;51.20
14901;DHT22;7542;49.078;9.194;2023-03-26T06:00:10;23.50;51.10
14901;DHT22;7542;49.078;9.194;2023-03-26T06:01:13;23.50;51.10
14901;DHT22;7542;49.078;9.194;2023-03-26T06:02:19;23.50;51.20
14901;DHT22;7542;49.078;9.194;2023-03-26T06:03:21;23.50;51.10
14901;DHT22;7542;49.078;9.194;2023-03-26T06:04:23;23.50;51.10
14901;DHT22;7542;49.078;9.194;2023-03-26T06:05:26;23.50;51.10
14901;DHT22;7542;49.078;9.194;2023-03-26T06:06:33;23.50;51.10
14901;DHT22;7542;49.078;9.194;2023-03-26T06:07:34;23.50;51.10
14901;DHT22;7542;49.078;9.194;2023-03-26T06:08:36;23.50;51.00
14901;DHT22;7542;49.078;9.194;2023-03-26T06:09:40;23.70;51.10
14901;DHT22;7542;49.078;9.194;2023-03-26T06:10:41;23.50;51.00
14901;DHT22;7542;49.078;9.194;2023-03-26T06:11:44;23.50;51.00
14901;DHT22;7542;49.078;9.194;2023-03-26T06:12:46;23.70;51.00
14901;DHT22;7542;49.078;9.194;2023-03-26T06:13:48;23.50;51.00
14901;DHT22;7542;49.078;9.194;2023-03-26T06:14:49;23.50;50.90
14901;DHT22;7542;49.078;9.194;2023-03-26T06:15:51;23.50;50.90
14901;DHT22;7542;49.078;9.194;2023-03-26T06:16:53;23.50;50.90
14901;DHT22;7542;49.078;9.194;2023-03-26T06:17:55;24.40;51.30
14901;DHT22;7542;49.078;9.194;2023-03-26T06:18:57;23.50;51.00
14901;DHT22;7542;49.078;9.194;2023-03-26T06:19:59;23.50;51.20
14901;DHT22;7542;49.078;9.194;2023-03-26T06:21:02;23.30;50.70
14901;DHT22;7542;49.078;9.194;2023-03-26T06:22:04;23.50;50.80
14901;DHT22;7542;49.078;9.194;2023-03-26T06:23:07;23.50;50.80
14901;DHT22;7542;49.078;9.194;2023-03-26T06:24:08;23.50;51.00
14901;DHT22;7542;49.078;9.194;2023-03-26T06:25:10;23.60;51.00
14901;DHT22;7542;49.078;9.194;2023-03-26T06:26:12;23.50;51.10
14901;DHT22;7542;49.078;9.194;2023-03-26T06:27:14;23.50;51.40
14901;DHT22;7542;49.078;9.194;2023-03-26T06:28:16;23.60;51.60
14901;DHT22;7542;49.078;9.194;2023-03-26T06:29:18;23.50;51.70
14901;DHT22;7542;49.078;9.194;2023-03-26T06:30:20;23.50;51.80
14901;DHT22;7542;49.078;9.194;2023-03-26T06:31:22;23.50;51.80
14901;DHT22;7542;49.078;9.194;2023-03-26T06:32:24;23.50;51.80
14901;DHT22;7542;49.078;9.194;2023-03-26T06:33:26;23.50;51.80
14901;DHT22;7542;49.078;9.194;2023-03-26T06:34:29;23.50;51.50
14901;DHT22;7542;49.078;9.194;2023-03-26T06:35:31;23.40;51.10
14901;DHT22;7542;49.078;9.194;2023-03-26T06:36:33;23.50;51.20
14901;DHT22;7542;49.078;9.194;2023-03-26T06:37:35;23.50;51.10
14901;DHT22;7542;49.078;9.194;2023-03-26T06:38:37;23.50;51.00
14901;DHT22;7542;49.078;9.194;2023-03-26T06:39:39;23.60;50.90
14901;DHT22;7542;49.078;9.194;2023-03-26T06:40:41;23.60;51.00
14901;DHT22;7542;49.078;9.194;2023-03-26T06:41:43;23.60;50.90
14901;DHT22;7542;49.078;9.194;2023-03-26T06:42:45;23.60;50.80
14901;DHT22;7542;49.078;9.194;2023-03-26T06:44:06;23.60;50.80
14901;DHT22;7542;49.078;9.194;2023-03-26T06:45:08;23.60;50.90
14901;DHT22;7542;49.078;9.194;2023-03-26T06:46:11;23.60;50.80
14901;DHT22;7542;49.078;9.194;2023-03-26T06:47:13;23.50;50.80
14901;DHT22;7542;49.078;9.194;2023-03-26T06:48:15;23.60;50.80
14901;DHT22;7542;49.078;9.194;2023-03-26T06:49:17;23.60;50.80
14901;DHT22;7542;49.078;9.194;2023-03-26T06:50:19;23.60;50.80
14901;DHT22;7542;49.078;9.194;2023-03-26T06:51:21;23.50;50.80
14901;DHT22;7542;49.078;9.194;2023-03-26T06:52:23;23.60;50.80
14901;DHT22;7542;49.078;9.194;2023-03-26T06:53:25;23.70;50.90
14901;DHT22;7542;49.078;9.194;2023-03-26T06:54:27;23.60;50.80
14901;DHT22;7542;49.078;9.194;2023-03-26T06:55:29;23.60;50.80
14901;DHT22;7542;49.078;9.194;2023-03-26T06:56:31;23.60;50.80
14901;DHT22;7542;49.078;9.194;2023-03-26T06:57:33;23.60;50.90
14901;DHT22;7542;49.078;9.194;2023-03-26T06:58:35;23.60;50.80
14901;DHT22;7542;49.078;9.194;2023-03-26T06:59:37;23.60;50.80
14901;DHT22;7542;49.078;9.194;2023-03-26T07:00:39;23.60;50.80
14901;DHT22;7542;49.078;9.194;2023-03-26T07:01:42;23.60;50.80
14901;DHT22;7542;49.078;9.194;2023-03-26T07:02:47;23.60;50.80
14901;DHT22;7542;49.078;9.194;2023-03-26T07:03:49;23.60;50.80
14901;DHT22;7542;49.078;9.194;2023-03-26T07:04:51;23.60;50.80
14901;DHT22;7542;49.078;9.194;2023-03-26T07:05:54;23.60;50.80
14901;DHT22;7542;49.078;9.194;2023-03-26T07:06:55;23.60;50.80
14901;DHT22;7542;49.078;9.194;2023-03-26T07:07:57;23.60;50.80
14901;DHT22;7542;49.078;9.194;2023-03-26T07:08:59;23.60;50.80
14901;DHT22;7542;49.078;9.194;2023-03-26T07:10:01;23.60;50.80
14901;DHT22;7542;49.078;9.194;2023-03-26T07:11:03;23.80;50.80
14901;DHT22;7542;49.078;9.194;2023-03-26T07:12:06;23.70;50.90
14901;DHT22;7542;49.078;9.194;2023-03-26T07:13:08;23.60;50.90